Terminal Aerodrome Forecast
Issued by NWS Sterling, VA

Current Version | Previous Version | Text Only | Print | Product List | Glossary Off
Versions: 1 2 3 4 5 6 7 8 9 10 11 12 13 14 15

000
FTUS41 KLWX 310500
TAFMRB
TAF
KMRB 310536Z 3106/0106 00000KT 6SM BR SCT050
     FM310800 17005KT 5SM BR SCT030 BKN130
     FM311000 18004KT 3SM BR SCT030 BKN090
     FM311400 20005KT P6SM BKN035 BKN045
     FM311800 21007KT P6SM -SHRA SCT050 OVC070
     FM010000 00000KT P6SM OVC060=

USA.gov is the U.S. government's official web portal to all federal, state and local government web resources and services.